createdAt,value
2023-09-15T00:00:44.126Z,21.18
2023-09-15T00:03:14.267Z,21.30
2023-09-15T00:05:44.142Z,21.39
2023-09-15T00:08:13.397Z,21.43
2023-09-15T00:10:45.674Z,21.59
2023-09-15T00:13:15.607Z,21.52
2023-09-15T00:15:44.872Z,21.42
2023-09-15T00:18:14.824Z,21.38
2023-09-15T00:20:44.235Z,21.23
2023-09-15T00:23:13.956Z,21.29
2023-09-15T00:25:47.011Z,21.26
2023-09-15T00:28:17.569Z,21.37
2023-09-15T00:30:47.342Z,20.76
2023-09-15T00:33:16.683Z,20.96
2023-09-15T00:35:49.076Z,21.08
2023-09-15T00:38:18.473Z,21.06
2023-09-15T00:40:49.723Z,20.90
2023-09-15T00:43:19.554Z,20.88
2023-09-15T00:45:49.003Z,20.76
2023-09-15T00:48:20.449Z,20.87
2023-09-15T00:50:49.723Z,20.96
2023-09-15T00:53:23.394Z,20.93
2023-09-15T00:55:54.994Z,20.93
2023-09-15T00:58:25.129Z,20.93
2023-09-15T01:00:55.419Z,20.75
2023-09-15T01:03:26.202Z,20.64
2023-09-15T01:05:56.610Z,20.37
2023-09-15T01:08:26.718Z,20.59
2023-09-15T01:10:57.963Z,20.73
2023-09-15T01:13:27.459Z,20.78
2023-09-15T01:16:03.903Z,20.58
2023-09-15T01:18:40.287Z,20.49
2023-09-15T01:21:51.174Z,20.61
2023-09-15T01:25:06.310Z,20.62
2023-09-15T01:28:06.318Z,20.39
2023-09-15T01:30:38.670Z,20.61
2023-09-15T01:33:11.245Z,20.48
2023-09-15T01:35:40.606Z,20.64
2023-09-15T01:38:10.057Z,20.54
2023-09-15T01:40:39.873Z,20.51
2023-09-15T01:43:09.160Z,20.56
2023-09-15T01:45:40.584Z,20.58
2023-09-15T01:48:11.464Z,20.64
2023-09-15T01:50:41.722Z,20.65
2023-09-15T01:53:11.931Z,20.55
2023-09-15T01:55:42.397Z,20.41
2023-09-15T01:58:12.159Z,19.96
2023-09-15T02:00:43.694Z,19.55
2023-09-15T02:03:13.762Z,19.09
2023-09-15T02:05:43.452Z,19.06
2023-09-15T02:08:12.729Z,19.04
2023-09-15T02:10:42.106Z,19.40
2023-09-15T02:13:13.147Z,19.41
2023-09-15T02:15:43.699Z,19.66
2023-09-15T02:18:13.433Z,19.82
2023-09-15T02:20:42.977Z,19.76
2023-09-15T02:23:13.048Z,19.90
2023-09-15T02:25:42.386Z,19.86
2023-09-15T02:28:11.775Z,19.97
2023-09-15T02:30:41.190Z,20.01
2023-09-15T02:33:12.122Z,20.06
2023-09-15T02:35:41.232Z,19.90
2023-09-15T02:38:10.516Z,19.89
2023-09-15T02:40:39.772Z,19.78
2023-09-15T02:43:10.355Z,19.76
2023-09-15T02:45:40.206Z,19.95
2023-09-15T02:48:12.143Z,19.79
2023-09-15T02:50:43.588Z,19.76
2023-09-15T02:53:13.795Z,19.88
2023-09-15T02:55:43.197Z,19.81
2023-09-15T02:58:12.752Z,19.79
2023-09-15T03:00:42.216Z,19.62
2023-09-15T03:03:13.796Z,19.64
2023-09-15T03:05:43.085Z,19.85
2023-09-15T03:08:14.526Z,19.88
2023-09-15T03:10:43.957Z,19.90
2023-09-15T03:13:13.343Z,19.87
2023-09-15T03:15:42.545Z,19.68
2023-09-15T03:18:14.234Z,19.74
2023-09-15T03:20:43.826Z,19.64
2023-09-15T03:23:13.010Z,19.63
2023-09-15T03:25:42.379Z,19.66
2023-09-15T03:28:13.117Z,19.65
2023-09-15T03:30:42.753Z,19.63
2023-09-15T03:33:13.548Z,19.59
2023-09-15T03:35:42.904Z,19.59
2023-09-15T03:38:12.352Z,19.67
2023-09-15T03:40:41.925Z,19.70
2023-09-15T03:43:11.533Z,19.75
2023-09-15T03:45:40.729Z,19.76
2023-09-15T03:48:10.049Z,19.48
2023-09-15T03:50:41.859Z,18.82
2023-09-15T03:53:12.401Z,18.78
2023-09-15T03:55:41.805Z,18.73
2023-09-15T03:58:11.440Z,18.95
2023-09-15T04:00:41.019Z,19.16
2023-09-15T04:03:10.880Z,19.09
2023-09-15T04:05:41.943Z,19.14
2023-09-15T04:08:11.380Z,19.15
2023-09-15T04:10:41.275Z,19.06
2023-09-15T04:13:11.153Z,19.20
2023-09-15T04:15:41.004Z,19.15
2023-09-15T04:18:10.870Z,19.12
2023-09-15T04:20:46.550Z,19.24
2023-09-15T04:23:17.740Z,19.25
2023-09-15T04:25:47.499Z,19.07
2023-09-15T04:28:16.854Z,18.15
2023-09-15T04:30:48.091Z,18.50
2023-09-15T04:33:18.953Z,18.82
2023-09-15T04:35:50.411Z,18.90
2023-09-15T04:38:20.683Z,18.87
2023-09-15T04:40:50.527Z,18.99
2023-09-15T04:43:20.829Z,19.10
2023-09-15T04:45:50.509Z,19.31
2023-09-15T04:48:20.751Z,19.47
2023-09-15T04:50:52.125Z,19.47
2023-09-15T04:53:22.961Z,19.64
2023-09-15T04:55:53.528Z,19.82
2023-09-15T04:58:23.026Z,19.89
2023-09-15T05:00:52.091Z,19.87
2023-09-15T05:03:21.563Z,19.93
2023-09-15T05:05:54.201Z,19.86
2023-09-15T05:08:24.265Z,19.86
2023-09-15T05:10:53.566Z,19.68
2023-09-15T05:13:23.165Z,19.57
2023-09-15T05:15:52.828Z,19.76
2023-09-15T05:18:22.309Z,19.51
2023-09-15T05:20:53.461Z,19.26
2023-09-15T05:23:23.745Z,18.47
2023-09-15T05:25:55.101Z,18.16
2023-09-15T05:28:27.038Z,18.13
2023-09-15T05:31:01.024Z,18.42
2023-09-15T05:33:32.866Z,18.76
2023-09-15T05:36:04.600Z,19.29
2023-09-15T05:38:34.090Z,19.56
2023-09-15T05:41:04.853Z,19.47
2023-09-15T05:43:34.259Z,19.91
2023-09-15T05:46:04.223Z,19.58
2023-09-15T05:48:33.520Z,19.66
2023-09-15T05:51:05.410Z,19.61
2023-09-15T05:53:34.651Z,20.04
2023-09-15T05:56:06.937Z,20.24
2023-09-15T05:58:36.346Z,20.20
2023-09-15T06:01:07.758Z,20.38
2023-09-15T06:03:37.870Z,20.46
2023-09-15T06:06:08.806Z,20.90
2023-09-15T06:08:39.396Z,21.25
2023-09-15T06:11:08.658Z,21.36
2023-09-15T06:13:40.230Z,21.68
2023-09-15T06:16:10.188Z,21.48
2023-09-15T06:18:39.937Z,21.62
2023-09-15T06:21:10.537Z,21.39
2023-09-15T06:23:40.059Z,21.18
2023-09-15T06:26:10.382Z,21.29
2023-09-15T06:28:39.901Z,21.37
2023-09-15T06:31:09.282Z,21.43
2023-09-15T06:33:38.698Z,21.61
2023-09-15T06:36:08.154Z,21.45
2023-09-15T06:38:39.306Z,22.28
2023-09-15T06:41:08.535Z,23.07
2023-09-15T06:43:38.182Z,23.78
2023-09-15T06:46:07.609Z,23.38
2023-09-15T06:48:37.140Z,23.10
2023-09-15T06:51:07.217Z,22.74
2023-09-15T06:53:36.686Z,22.38
2023-09-15T06:56:08.014Z,23.32
2023-09-15T06:58:37.255Z,24.12
2023-09-15T07:01:08.737Z,24.07
2023-09-15T07:03:38.093Z,23.84
2023-09-15T07:06:07.618Z,23.51
2023-09-15T07:08:37.165Z,23.32
2023-09-15T07:11:07.824Z,23.50
2023-09-15T07:13:37.180Z,23.29
2023-09-15T07:16:06.779Z,24.06
2023-09-15T07:18:36.133Z,24.84
2023-09-15T07:21:05.689Z,24.23
2023-09-15T07:23:34.868Z,24.34
2023-09-15T07:26:04.087Z,24.96
2023-09-15T07:28:34.849Z,25.95
2023-09-15T07:31:05.540Z,26.63
2023-09-15T07:33:35.484Z,26.97
2023-09-15T07:36:06.841Z,26.55
2023-09-15T07:38:36.359Z,26.91
2023-09-15T07:41:05.575Z,27.80
2023-09-15T07:43:36.540Z,27.35
2023-09-15T07:46:13.653Z,27.47
2023-09-15T07:48:45.158Z,27.36
2023-09-15T07:51:15.318Z,27.03
2023-09-15T07:53:45.312Z,26.06
2023-09-15T07:56:14.858Z,26.12
2023-09-15T07:58:46.665Z,27.01
2023-09-15T08:01:17.437Z,26.41
2023-09-15T08:03:47.032Z,26.73
2023-09-15T08:06:16.690Z,27.56
2023-09-15T08:08:46.360Z,27.19
2023-09-15T08:11:16.004Z,27.35
2023-09-15T08:13:47.325Z,27.39
2023-09-15T08:16:17.043Z,27.10
2023-09-15T08:18:46.456Z,27.13
2023-09-15T08:21:15.681Z,26.68
2023-09-15T08:23:45.465Z,27.93
2023-09-15T08:26:15.801Z,27.82
2023-09-15T08:28:47.691Z,28.25
2023-09-15T08:31:17.064Z,28.72
2023-09-15T08:33:46.652Z,27.15
2023-09-15T08:36:16.333Z,28.34
2023-09-15T08:38:45.427Z,28.49
2023-09-15T08:41:20.261Z,28.43
2023-09-15T08:43:51.864Z,27.21
2023-09-15T08:46:21.453Z,27.93
2023-09-15T08:48:56.023Z,27.26
2023-09-15T08:51:28.201Z,27.45
2023-09-15T08:53:58.915Z,29.07
2023-09-15T08:56:29.258Z,29.33
2023-09-15T08:59:01.351Z,29.67
2023-09-15T09:01:30.540Z,31.42
2023-09-15T09:03:59.864Z,31.15
2023-09-15T09:06:33.707Z,29.62
2023-09-15T09:09:03.924Z,28.69
2023-09-15T09:11:33.746Z,29.23
2023-09-15T09:14:13.033Z,29.01
2023-09-15T09:16:45.547Z,30.14
2023-09-15T09:19:15.915Z,31.73
2023-09-15T09:21:46.148Z,31.83
2023-09-15T09:24:16.539Z,32.21
2023-09-15T09:26:55.659Z,30.64
2023-09-15T09:29:34.702Z,30.71
2023-09-15T09:32:05.046Z,30.52
2023-09-15T09:34:47.802Z,29.09
2023-09-15T09:37:17.905Z,30.71
2023-09-15T09:39:49.630Z,32.34
2023-09-15T09:42:19.475Z,31.97
2023-09-15T09:44:50.780Z,33.37
2023-09-15T09:47:20.565Z,31.13
2023-09-15T09:49:50.183Z,30.41
2023-09-15T09:52:20.101Z,31.04
2023-09-15T09:54:52.178Z,29.23
2023-09-15T09:57:22.432Z,30.49
2023-09-15T09:59:53.721Z,30.95
2023-09-15T10:02:23.328Z,29.62
2023-09-15T10:04:53.232Z,30.48
2023-09-15T10:07:23.415Z,29.44
2023-09-15T10:09:53.769Z,30.48
2023-09-15T10:12:26.259Z,31.55
2023-09-15T10:14:58.374Z,32.46
2023-09-15T10:17:29.826Z,33.37
2023-09-15T10:19:59.476Z,33.74
2023-09-15T10:22:28.818Z,33.35
2023-09-15T10:24:59.933Z,33.98
2023-09-15T10:27:30.803Z,32.70
2023-09-15T10:30:06.403Z,31.31
2023-09-15T10:32:41.239Z,29.19
2023-09-15T10:35:13.057Z,29.74
2023-09-15T10:37:44.363Z,30.56
2023-09-15T10:40:15.319Z,29.52
2023-09-15T10:42:51.404Z,29.35
2023-09-15T10:45:23.015Z,29.99
2023-09-15T10:48:00.030Z,30.14
2023-09-15T10:50:34.805Z,31.10
2023-09-15T10:53:11.095Z,30.78
2023-09-15T10:55:42.301Z,32.01
2023-09-15T10:58:12.288Z,32.35
2023-09-15T11:00:43.797Z,31.60
2023-09-15T11:03:13.820Z,29.28
2023-09-15T11:05:42.978Z,29.81
2023-09-15T11:08:13.500Z,30.30
2023-09-15T11:10:44.447Z,29.30
2023-09-15T11:13:14.062Z,29.58
2023-09-15T11:15:44.762Z,29.36
2023-09-15T11:18:17.202Z,29.94
2023-09-15T11:20:47.395Z,30.60
2023-09-15T11:23:19.078Z,29.79
2023-09-15T11:25:48.600Z,29.12
2023-09-15T11:28:18.808Z,29.39
2023-09-15T11:30:50.063Z,29.64
2023-09-15T11:33:19.824Z,29.06
2023-09-15T11:35:50.342Z,29.81
2023-09-15T11:38:20.860Z,30.32
2023-09-15T11:40:51.263Z,31.15
2023-09-15T11:43:23.115Z,32.25
2023-09-15T11:45:55.481Z,32.17
2023-09-15T11:48:25.248Z,32.47
2023-09-15T11:50:55.938Z,31.92
2023-09-15T11:53:26.435Z,31.26
2023-09-15T11:55:56.093Z,30.67
2023-09-15T11:58:25.428Z,30.54
2023-09-15T12:00:57.122Z,30.74
2023-09-15T12:03:28.091Z,31.44
2023-09-15T12:05:58.063Z,31.03
2023-09-15T12:08:27.855Z,30.23
2023-09-15T12:11:09.902Z,29.41
2023-09-15T12:13:41.673Z,30.03
2023-09-15T12:16:19.704Z,29.88
2023-09-15T12:18:50.370Z,29.84
2023-09-15T12:21:25.707Z,29.65
2023-09-15T12:23:55.905Z,28.85
2023-09-15T12:26:26.795Z,28.34
2023-09-15T12:28:56.116Z,28.52
2023-09-15T12:31:27.523Z,28.43
2023-09-15T12:33:58.190Z,28.20
2023-09-15T12:36:27.842Z,27.89
2023-09-15T12:38:57.200Z,27.84
2023-09-15T12:41:26.750Z,27.67
2023-09-15T12:43:56.198Z,27.70
2023-09-15T12:46:27.549Z,27.39
2023-09-15T12:48:57.279Z,26.01
2023-09-15T12:51:26.951Z,23.46
2023-09-15T12:53:56.219Z,23.21
2023-09-15T12:56:26.502Z,23.72
2023-09-15T12:58:56.478Z,24.52
2023-09-15T13:01:27.698Z,25.42
2023-09-15T13:03:57.264Z,25.97
2023-09-15T13:06:26.899Z,26.09
2023-09-15T13:08:56.997Z,26.61
2023-09-15T13:11:26.344Z,27.11
2023-09-15T13:13:55.981Z,27.29
2023-09-15T13:16:27.524Z,27.58
2023-09-15T13:18:56.860Z,27.88
2023-09-15T13:21:26.593Z,27.84
2023-09-15T13:23:56.157Z,27.90
2023-09-15T13:26:25.518Z,27.82
2023-09-15T13:28:54.963Z,28.04
2023-09-15T13:31:24.331Z,28.19
2023-09-15T13:33:55.806Z,27.99
2023-09-15T13:36:25.297Z,27.73
2023-09-15T13:38:54.688Z,26.63
2023-09-15T13:41:25.139Z,25.41
2023-09-15T13:43:54.387Z,24.94
2023-09-15T13:46:23.972Z,25.24
2023-09-15T13:48:54.795Z,24.90
2023-09-15T13:51:39.941Z,24.98
2023-09-15T13:54:12.100Z,25.11
2023-09-15T13:56:41.411Z,25.29
2023-09-15T13:59:10.719Z,25.78
2023-09-15T14:01:41.482Z,25.99
2023-09-15T14:04:14.364Z,26.08
2023-09-15T14:06:43.791Z,25.91
2023-09-15T14:09:13.943Z,25.98
2023-09-15T14:11:44.051Z,26.07
2023-09-15T14:14:13.350Z,25.77
2023-09-15T14:16:42.946Z,25.18
2023-09-15T14:19:14.101Z,24.94
2023-09-15T14:21:45.844Z,24.78
2023-09-15T14:24:15.741Z,24.58
2023-09-15T14:26:45.499Z,24.33
2023-09-15T14:29:16.270Z,24.11
2023-09-15T14:31:45.995Z,23.44
2023-09-15T14:34:17.189Z,23.52
2023-09-15T14:36:47.046Z,23.38
2023-09-15T14:39:17.359Z,23.25
2023-09-15T14:41:48.889Z,23.29
2023-09-15T14:44:23.392Z,22.59
2023-09-15T14:46:53.737Z,22.58
2023-09-15T14:49:27.469Z,22.72
2023-09-15T14:51:57.284Z,23.16
2023-09-15T14:54:26.959Z,23.38
2023-09-15T14:56:56.409Z,23.45
2023-09-15T14:59:26.098Z,23.41
2023-09-15T15:01:56.474Z,23.55
2023-09-15T15:04:28.953Z,23.62
2023-09-15T15:07:00.279Z,23.63
2023-09-15T15:09:30.744Z,23.58
2023-09-15T15:12:00.050Z,23.46
2023-09-15T15:14:31.085Z,23.55
2023-09-15T15:17:00.555Z,23.46
2023-09-15T15:19:31.794Z,23.44
2023-09-15T15:22:02.416Z,23.38
2023-09-15T15:24:31.889Z,23.36
2023-09-15T15:27:04.919Z,23.50
2023-09-15T15:29:34.744Z,23.92
2023-09-15T15:32:04.725Z,24.08
2023-09-15T15:34:36.257Z,23.94
2023-09-15T15:37:06.493Z,23.89
2023-09-15T15:39:35.796Z,23.83
2023-09-15T15:42:05.335Z,23.84
2023-09-15T15:44:39.429Z,24.10
2023-09-15T15:47:09.257Z,24.08
2023-09-15T15:49:40.460Z,23.91
2023-09-15T15:52:09.992Z,24.09
2023-09-15T15:54:39.721Z,24.03
2023-09-15T15:57:09.474Z,23.94
2023-09-15T15:59:39.678Z,23.76
2023-09-15T16:02:14.375Z,23.43
2023-09-15T16:04:46.526Z,23.29
2023-09-15T16:07:16.057Z,23.13
2023-09-15T16:09:45.807Z,22.19
2023-09-15T16:12:15.567Z,22.33
2023-09-15T16:14:45.073Z,22.64
2023-09-15T16:17:14.648Z,22.67
2023-09-15T16:19:45.849Z,22.45
2023-09-15T16:22:15.114Z,22.25
2023-09-15T16:24:44.625Z,21.94
2023-09-15T16:27:14.071Z,21.97
2023-09-15T16:29:43.539Z,21.66
2023-09-15T16:32:13.130Z,21.59
2023-09-15T16:34:43.968Z,21.55
2023-09-15T16:37:15.368Z,21.63
2023-09-15T16:39:45.162Z,21.38
2023-09-15T16:42:15.096Z,21.34
2023-09-15T16:44:45.634Z,21.47
2023-09-15T16:47:17.510Z,21.54
2023-09-15T16:49:46.892Z,21.54
2023-09-15T16:52:18.055Z,21.56
2023-09-15T16:54:47.688Z,21.74
2023-09-15T16:57:17.425Z,21.61
2023-09-15T16:59:46.846Z,21.51
2023-09-15T17:02:16.370Z,21.47
2023-09-15T17:04:46.051Z,21.34
2023-09-15T17:07:17.263Z,21.34
2023-09-15T17:09:46.812Z,21.31
2023-09-15T17:12:16.185Z,21.29
2023-09-15T17:14:45.818Z,21.21
2023-09-15T17:17:15.337Z,21.10
2023-09-15T17:19:44.301Z,21.02
2023-09-15T17:22:14.299Z,20.94
2023-09-15T17:24:45.624Z,20.99
2023-09-15T17:27:16.081Z,20.90
2023-09-15T17:29:45.161Z,20.88
2023-09-15T17:32:14.586Z,20.85
2023-09-15T17:34:47.218Z,20.54
2023-09-15T17:37:17.614Z,20.44
2023-09-15T17:39:51.832Z,20.47
2023-09-15T17:42:22.021Z,20.55
2023-09-15T17:44:51.268Z,20.37
2023-09-15T17:47:20.576Z,20.39
2023-09-15T17:50:05.229Z,20.49
2023-09-15T17:52:35.280Z,20.35
2023-09-15T17:55:07.642Z,20.28
2023-09-15T17:57:37.362Z,20.39
2023-09-15T18:00:09.068Z,20.54
2023-09-15T18:02:40.238Z,20.40
2023-09-15T18:05:09.690Z,20.34
2023-09-15T18:07:39.034Z,20.26
2023-09-15T18:10:11.801Z,20.18
2023-09-15T18:12:41.099Z,20.16
2023-09-15T18:15:12.361Z,20.21
2023-09-15T18:17:44.107Z,20.31
2023-09-15T18:20:13.443Z,20.49
2023-09-15T18:22:42.955Z,20.56
2023-09-15T18:25:14.592Z,20.59
2023-09-15T18:27:44.058Z,20.53
2023-09-15T18:30:17.271Z,20.56
2023-09-15T18:32:47.688Z,20.83
2023-09-15T18:35:17.330Z,20.80
2023-09-15T18:37:46.656Z,20.87
2023-09-15T18:40:18.030Z,20.82
2023-09-15T18:42:48.916Z,21.00
2023-09-15T18:45:18.364Z,21.17
2023-09-15T18:47:47.877Z,21.30
2023-09-15T18:50:17.599Z,21.28
2023-09-15T18:52:47.636Z,21.34
2023-09-15T18:55:19.296Z,21.60
2023-09-15T18:57:49.167Z,21.52
2023-09-15T19:00:19.026Z,21.35
2023-09-15T19:02:49.636Z,21.14
2023-09-15T19:05:19.238Z,21.12
2023-09-15T19:07:48.634Z,21.12
2023-09-15T19:10:20.235Z,21.19
2023-09-15T19:12:51.095Z,20.84
2023-09-15T19:15:22.501Z,20.98
2023-09-15T19:17:51.923Z,21.17
2023-09-15T19:20:21.437Z,21.25
2023-09-15T19:22:50.842Z,21.42
2023-09-15T19:25:22.222Z,21.17
2023-09-15T19:27:51.893Z,21.04
2023-09-15T19:30:21.999Z,20.25
2023-09-15T19:32:51.473Z,20.23
2023-09-15T19:35:21.090Z,20.10
2023-09-15T19:37:50.453Z,20.15
2023-09-15T19:40:21.776Z,20.21
2023-09-15T19:42:51.187Z,20.08
2023-09-15T19:45:20.591Z,20.07
2023-09-15T19:47:52.212Z,20.13
2023-09-15T19:50:22.064Z,20.33
2023-09-15T19:52:51.608Z,20.28
2023-09-15T19:55:23.979Z,20.56
2023-09-15T19:57:56.461Z,20.50
2023-09-15T20:00:26.577Z,20.36
2023-09-15T20:02:56.347Z,20.20
2023-09-15T20:05:26.381Z,20.12
2023-09-15T20:07:58.133Z,20.08
2023-09-15T20:10:29.403Z,20.09
2023-09-15T20:12:58.580Z,20.14
2023-09-15T20:15:29.450Z,20.07
2023-09-15T20:17:59.823Z,19.98
2023-09-15T20:20:30.676Z,20.03
2023-09-15T20:23:00.055Z,19.98
2023-09-15T20:25:35.193Z,19.99
2023-09-15T20:28:04.845Z,20.00
2023-09-15T20:30:34.403Z,20.00
2023-09-15T20:33:04.169Z,20.02
2023-09-15T20:35:33.245Z,19.91
2023-09-15T20:38:02.590Z,19.98
2023-09-15T20:40:33.547Z,20.20
2023-09-15T20:43:03.686Z,20.13
2023-09-15T20:45:34.457Z,20.20
2023-09-15T20:48:05.050Z,20.12
2023-09-15T20:50:34.435Z,20.01
2023-09-15T20:53:04.130Z,20.06
2023-09-15T20:55:36.796Z,20.00
2023-09-15T20:58:09.277Z,20.03
2023-09-15T21:00:39.246Z,19.89
2023-09-15T21:03:08.640Z,19.92
2023-09-15T21:05:38.141Z,19.97
2023-09-15T21:08:08.089Z,20.15
2023-09-15T21:10:39.542Z,20.27
2023-09-15T21:13:09.277Z,20.26
2023-09-15T21:15:38.734Z,20.18
2023-09-15T21:18:08.322Z,19.96
2023-09-15T21:20:37.688Z,20.03
2023-09-15T21:23:07.203Z,19.91
2023-09-15T21:25:38.213Z,19.63
2023-09-15T21:28:09.257Z,19.18
2023-09-15T21:30:40.314Z,19.05
2023-09-15T21:33:09.654Z,19.00
2023-09-15T21:35:41.871Z,19.25
2023-09-15T21:38:11.497Z,19.37
2023-09-15T21:40:41.409Z,19.54
2023-09-15T21:43:12.586Z,19.62
2023-09-15T21:45:41.734Z,19.71
2023-09-15T21:48:11.061Z,19.75
2023-09-15T21:50:41.335Z,19.54
2023-09-15T21:53:10.900Z,18.96
2023-09-15T21:55:40.296Z,18.93
2023-09-15T21:58:12.209Z,18.91
2023-09-15T22:00:41.758Z,18.97
2023-09-15T22:03:11.733Z,18.98
2023-09-15T22:05:42.805Z,19.11
2023-09-15T22:08:12.186Z,19.32
2023-09-15T22:10:41.504Z,18.95
2023-09-15T22:13:13.848Z,18.98
2023-09-15T22:15:43.700Z,19.25
2023-09-15T22:18:14.678Z,19.44
2023-09-15T22:20:44.830Z,19.55
2023-09-15T22:23:15.811Z,19.58
2023-09-15T22:25:45.772Z,19.54
2023-09-15T22:28:16.560Z,19.15
2023-09-15T22:30:46.436Z,18.87
2023-09-15T22:33:16.117Z,18.80
2023-09-15T22:35:45.930Z,18.72
2023-09-15T22:38:16.255Z,17.96
2023-09-15T22:40:46.071Z,18.18
2023-09-15T22:43:17.294Z,18.32
2023-09-15T22:45:48.890Z,18.58
2023-09-15T22:48:18.296Z,18.70
2023-09-15T22:50:47.964Z,18.82
2023-09-15T22:53:18.738Z,18.86
2023-09-15T22:55:48.088Z,18.90
2023-09-15T22:58:19.110Z,18.85
2023-09-15T23:00:48.581Z,18.84
2023-09-15T23:03:18.048Z,18.79
2023-09-15T23:05:48.354Z,18.84
2023-09-15T23:08:19.423Z,18.81
2023-09-15T23:10:48.820Z,19.02
2023-09-15T23:13:19.737Z,18.94
2023-09-15T23:15:49.711Z,19.02
2023-09-15T23:18:20.230Z,19.15
2023-09-15T23:20:51.466Z,18.78
2023-09-15T23:23:20.952Z,18.80
2023-09-15T23:25:50.599Z,18.98
2023-09-15T23:28:22.803Z,19.05
2023-09-15T23:30:52.535Z,18.84
2023-09-15T23:33:23.605Z,18.87
2023-09-15T23:35:53.047Z,19.02
2023-09-15T23:38:22.304Z,19.08
2023-09-15T23:40:51.872Z,19.18
2023-09-15T23:43:22.879Z,19.06
2023-09-15T23:45:52.394Z,18.93
2023-09-15T23:48:22.074Z,18.88
2023-09-15T23:50:51.843Z,19.01
2023-09-15T23:53:21.251Z,19.02
2023-09-15T23:55:53.763Z,19.05
2023-09-15T23:58:24.828Z,19.14
